Time;durP1;ratioP1;P1;durP2;ratioP2;P2;SDS_P1;SDS_P2;PMS_P1;PMS_P2;Temp;Humidity;BMP_temperature;BMP_pressure;BME280_temperature;BME280_humidity;BME280_pressure;Samples;Min_cycle;Max_cycle;Signal;HPM_P1;HPM_P2
2022/07/05 00:02:46;;;;;;;5.85;1.70;;;26.80;62.90;;;25.83;49.96;99947.50;10254349;28;97933;-84
2022/07/05 00:07:49;;;;;;;2.35;1.55;;;26.70;63.40;;;25.83;50.26;99944.78;10269574;28;96746;-84
2022/07/05 00:12:52;;;;;;;3.30;1.50;;;26.70;63.50;;;25.78;50.59;99949.41;10273499;28;97278;-85
2022/07/05 00:17:55;;;;;;;3.67;1.30;;;26.70;63.90;;;25.73;51.26;99952.13;10272220;28;96680;-84
2022/07/05 00:22:58;;;;;;;2.30;1.30;;;26.60;64.40;;;25.65;51.34;99950.78;10284321;28;96860;-84
2022/07/05 00:28:01;;;;;;;4.43;1.80;;;26.60;65.00;;;25.59;51.75;99944.50;10275217;28;96592;-84
2022/07/05 00:33:04;;;;;;;2.38;1.48;;;26.50;65.30;;;25.51;51.59;99941.53;10291468;28;96548;-84
2022/07/05 00:38:07;;;;;;;3.85;1.48;;;26.40;65.20;;;25.52;51.50;99946.69;10272461;28;96853;-83
2022/07/05 00:43:10;;;;;;;3.72;1.58;;;26.40;65.00;;;25.52;51.89;99943.97;10271543;28;98421;-84
2022/07/05 00:48:13;;;;;;;2.20;1.38;;;26.50;65.10;;;25.53;51.88;99942.06;10288359;28;96825;-83
2022/07/05 00:53:17;;;;;;;2.58;1.20;;;26.50;64.80;;;25.54;51.70;99938.25;10273767;28;96554;-83
2022/07/05 00:58:20;;;;;;;2.97;1.27;;;26.60;65.30;;;25.52;51.84;99935.81;10249565;28;96619;-83
2022/07/05 01:03:23;;;;;;;4.20;1.23;;;26.60;64.50;;;25.49;51.02;99947.25;10255980;28;97181;-83
2022/07/05 01:08:26;;;;;;;4.10;1.40;;;26.50;64.10;;;25.49;51.07;99946.41;10258031;28;97098;-83
2022/07/05 01:13:30;;;;;;;2.05;1.30;;;26.50;64.20;;;25.42;51.27;99956.75;10272402;28;97150;-83
2022/07/05 01:18:33;;;;;;;3.55;1.20;;;26.50;64.60;;;25.31;51.50;99964.94;10269385;28;98237;-83
2022/07/05 01:23:36;;;;;;;1.33;1.20;;;26.30;64.80;;;25.23;51.71;99954.56;10289040;28;96847;-84
2022/07/05 01:28:40;;;;;;;1.63;1.17;;;26.20;64.90;;;25.19;51.71;99950.78;10256844;28;98258;-84
2022/07/05 01:33:43;;;;;;;2.85;1.30;;;26.20;65.00;;;25.14;51.62;99936.38;10254691;28;96762;-83
2022/07/05 01:38:46;;;;;;;1.80;1.10;;;26.10;65.00;;;25.09;51.49;99929.81;10254963;28;96664;-83
2022/07/05 01:43:49;;;;;;;2.35;1.05;;;26.10;64.90;;;25.10;51.63;99927.91;10273301;28;96504;-83
2022/07/05 01:48:57;;;;;;;1.48;1.00;;;26.10;64.80;;;25.11;51.61;99931.44;10246949;28;98220;-83
2022/07/05 01:54:00;;;;;;;1.45;1.10;;;26.10;64.70;;;25.09;51.94;99931.72;10272016;28;96597;-83
2022/07/05 01:59:04;;;;;;;2.63;1.00;;;26.20;64.70;;;25.06;51.83;99924.09;10272504;28;96550;-83
2022/07/05 02:04:09;;;;;;;1.83;0.82;;;26.20;64.60;;;25.10;51.90;99941.50;10235924;28;97307;-83
2022/07/05 02:09:13;;;;;;;2.45;1.10;;;26.20;64.60;;;25.11;51.96;99928.72;10271690;28;96737;-83
2022/07/05 02:14:16;;;;;;;2.50;0.90;;;26.20;64.50;;;25.12;51.69;99933.88;10278390;28;96924;-83
2022/07/05 02:19:19;;;;;;;2.80;1.10;;;26.30;64.50;;;25.15;51.67;99929.84;10277565;28;96823;-83
2022/07/05 02:24:22;;;;;;;2.42;1.10;;;26.30;64.50;;;25.11;51.44;99929.53;10293690;28;96494;-82
2022/07/05 02:29:25;;;;;;;2.00;1.00;;;26.30;64.40;;;25.16;51.30;99926.84;10274944;28;98267;-82
2022/07/05 02:34:28;;;;;;;1.30;1.00;;;26.20;64.30;;;25.19;51.22;99915.44;10277281;28;98158;-82
2022/07/05 02:39:31;;;;;;;3.90;0.98;;;26.30;64.30;;;25.22;51.07;99914.06;10265093;28;97147;-82
2022/07/05 02:44:35;;;;;;;3.35;1.23;;;26.30;64.30;;;25.26;51.09;99913.25;10278345;28;96975;-82
2022/07/05 02:49:37;;;;;;;2.40;1.10;;;26.30;64.40;;;25.26;51.15;99909.72;10276798;28;97192;-82
2022/07/05 02:54:41;;;;;;;1.38;1.10;;;26.40;64.30;;;25.30;51.26;99927.91;10277780;28;96695;-82
2022/07/05 02:59:44;;;;;;;2.33;1.35;;;26.40;64.50;;;25.30;51.22;99922.47;10277581;28;97086;-83
2022/07/05 03:04:48;;;;;;;2.45;1.25;;;26.50;64.40;;;25.27;51.42;99914.06;10292521;28;96721;-82
2022/07/05 03:09:50;;;;;;;3.35;2.00;;;26.40;64.50;;;25.21;51.82;99924.13;10293075;28;97452;-83
2022/07/05 03:14:53;;;;;;;2.10;1.15;;;26.30;64.70;;;25.20;51.68;99929.84;10276485;28;96599;-83
2022/07/05 03:19:56;;;;;;;3.70;1.20;;;26.30;64.70;;;25.13;51.99;99916.53;10251282;28;96677;-82
2022/07/05 03:24:59;;;;;;;3.53;2.03;;;26.30;64.80;;;25.11;51.72;99917.84;10283474;28;96548;-82
2022/07/05 03:30:04;;;;;;;3.30;1.30;;;26.20;64.70;;;25.03;52.11;99911.84;10275053;28;96518;-82
2022/07/05 03:35:07;;;;;;;2.10;1.33;;;26.20;65.10;;;25.01;52.31;99913.19;10275008;28;96650;-83
2022/07/05 03:40:10;;;;;;;1.70;1.23;;;26.20;65.10;;;25.01;52.26;99915.91;10276176;28;97513;-83
2022/07/05 03:45:14;;;;;;;2.65;1.05;;;26.20;65.20;;;25.01;52.62;99932.22;10296433;22;96888;-82
2022/07/05 03:50:17;;;;;;;1.50;1.05;;;26.10;65.40;;;24.89;53.08;99932.50;10358763;28;96949;-82
2022/07/05 03:55:20;;;;;;;2.85;1.23;;;26.10;66.00;;;24.78;53.80;99945.22;10374056;28;96527;-82
2022/07/05 04:00:23;;;;;;;1.23;1.10;;;26.00;66.40;;;24.74;53.26;99938.69;10322267;28;98141;-82
2022/07/05 04:05:26;;;;;;;1.98;1.50;;;25.90;66.20;;;24.72;53.48;99949.00;10372784;28;96480;-83
2022/07/05 04:10:29;;;;;;;1.75;1.25;;;25.90;66.20;;;24.77;52.58;99957.19;10356151;28;96915;-83
2022/07/05 04:15:32;;;;;;;3.30;1.60;;;25.80;65.80;;;24.80;52.95;99953.09;10374554;28;98661;-83
2022/07/05 04:20:35;;;;;;;2.90;1.50;;;25.90;65.90;;;24.89;53.02;99958.81;10356075;28;96964;-83
2022/07/05 04:25:37;;;;;;;1.15;1.00;;;25.90;65.90;;;25.00;52.17;99955.03;10340050;28;96598;-83
2022/07/05 04:30:41;;;;;;;2.28;1.20;;;26.00;65.50;;;25.11;51.64;99945.03;10336616;28;96557;-83
2022/07/05 04:35:44;;;;;;;5.38;1.35;;;26.10;65.30;;;25.17;52.14;99942.06;10373098;28;96605;-83
2022/07/05 04:40:47;;;;;;;2.40;1.23;;;26.10;65.50;;;25.21;51.68;99937.72;10373209;28;96529;-83
2022/07/05 04:45:51;;;;;;;4.05;1.30;;;26.20;65.50;;;25.32;51.36;99933.94;10355605;28;96579;-83
2022/07/05 04:50:58;;;;;;;2.38;1.38;;;26.30;65.20;;;25.51;50.40;99938.81;10372468;28;96495;-83
2022/07/05 04:56:01;;;;;;;3.80;1.23;;;26.40;64.60;;;25.73;50.48;99933.06;10349595;28;96641;-83
2022/07/05 05:01:04;;;;;;;3.90;1.30;;;26.60;64.40;;;25.88;50.04;99943.97;10334867;28;98330;-84
2022/07/05 05:06:07;;;;;;;1.50;1.10;;;26.80;63.90;;;25.98;49.21;99945.88;10346927;28;96530;-83
2022/07/05 05:11:10;;;;;;;2.50;1.20;;;26.90;63.40;;;26.00;49.13;99943.69;10333400;28;96884;-83
2022/07/05 05:16:13;;;;;;;3.47;1.30;;;27.00;63.30;;;25.96;49.22;99934.41;10355099;28;96497;-84
2022/07/05 05:21:16;;;;;;;2.17;1.10;;;27.00;63.20;;;25.94;49.30;99939.34;10368462;28;98416;-83
2022/07/05 05:26:19;;;;;;;2.00;1.00;;;26.90;63.20;;;25.91;49.17;99918.94;10373155;28;96578;-83
2022/07/05 05:31:22;;;;;;;3.83;1.17;;;26.90;63.30;;;25.97;49.42;99926.00;10366417;28;97244;-83
2022/07/05 05:36:25;;;;;;;3.45;1.48;;;27.00;63.50;;;26.02;49.44;99922.44;10369508;28;97194;-83
2022/07/05 05:41:28;;;;;;;3.25;1.60;;;27.00;63.40;;;26.10;49.78;99921.88;10352239;28;98626;-83
2022/07/05 05:46:31;;;;;;;3.58;1.40;;;27.20;63.60;;;26.09;49.93;99928.41;10370526;28;96627;-84
2022/07/05 05:51:34;;;;;;;3.25;1.30;;;27.20;63.70;;;26.03;49.39;99943.94;10376216;28;97073;-83
2022/07/05 05:56:38;;;;;;;1.40;1.30;;;27.20;63.50;;;26.09;50.05;99955.66;10343613;28;97986;-83
2022/07/05 06:01:41;;;;;;;2.15;1.50;;;27.20;63.30;;;26.12;49.89;99953.16;10337496;28;96986;-83
2022/07/05 06:06:44;;;;;;;1.40;0.93;;;27.30;63.50;;;26.14;47.78;99961.06;10374669;28;96722;-83
2022/07/05 06:11:47;;;;;;;2.65;1.17;;;27.30;61.90;;;26.09;47.22;99955.66;10364429;28;97182;-80
2022/07/05 06:16:50;;;;;;;4.07;1.10;;;27.20;61.40;;;26.08;46.61;99973.06;10376737;28;98247;-83
2022/07/05 06:21:53;;;;;;;3.33;1.20;;;27.10;60.60;;;26.03;46.71;99983.94;10365532;28;96753;-84
2022/07/05 06:27:01;;;;;;;4.00;1.37;;;27.10;60.70;;;25.94;46.93;99989.16;10345909;28;96661;-83
2022/07/05 06:32:05;;;;;;;2.85;1.08;;;26.90;61.00;;;25.83;47.06;99980.19;10352687;28;98584;-83
2022/07/05 06:37:08;;;;;;;2.28;1.13;;;26.80;61.40;;;25.73;47.98;99972.03;10374360;28;96607;-82
2022/07/05 06:42:11;;;;;;;1.52;1.40;;;26.60;62.10;;;25.59;49.22;99981.78;10352589;28;97554;-85
2022/07/05 06:47:16;;;;;;;2.78;1.15;;;26.50;63.40;;;25.45;49.60;99980.72;10374891;28;96712;-84
2022/07/05 06:52:19;;;;;;;2.55;1.00;;;26.40;63.90;;;25.37;49.78;99973.91;10375075;28;96985;-86
2022/07/05 06:57:22;;;;;;;1.38;0.95;;;26.30;64.10;;;25.32;50.18;99974.72;10360040;28;96468;-83
2022/07/05 07:02:34;;;;;;;2.67;1.00;;;26.20;64.30;;;25.38;50.66;99967.38;10370650;28;97067;-85
2022/07/05 07:13:00;;;;;;;1.45;1.00;;;26.40;64.50;;;25.82;49.83;99948.59;10376744;28;97370;-85
2022/07/05 07:18:04;;;;;;;1.20;0.90;;;26.60;64.10;;;25.87;48.71;99950.50;10375486;28;96605;-85
2022/07/05 07:23:07;;;;;;;1.42;0.90;;;26.70;63.20;;;25.93;48.29;99949.41;10352366;28;97101;-85
2022/07/05 07:28:10;;;;;;;3.80;0.80;;;26.80;63.10;;;26.14;48.15;99942.81;10374103;28;96794;-84
2022/07/05 07:33:12;;;;;;;1.52;0.77;;;27.00;62.80;;;26.28;47.73;99940.34;10354054;28;96963;-85
2022/07/05 07:38:35;;;;;;;1.15;0.80;;;27.20;62.30;;;26.30;47.16;99942.78;10369670;28;97034;-85
2022/07/05 07:43:38;;;;;;;2.03;0.90;;;27.20;61.90;;;26.21;46.96;99947.16;10356155;28;97547;-85
2022/07/05 07:48:41;;;;;;;2.08;0.90;;;27.20;61.60;;;26.18;47.10;99940.34;10357700;28;96808;-84
2022/07/05 07:53:44;;;;;;;1.13;0.90;;;27.10;61.70;;;26.21;47.37;99937.09;10356985;28;96663;-84
2022/07/05 07:58:48;;;;;;;2.08;0.82;;;27.10;61.90;;;26.28;48.07;99932.16;10373603;28;96602;-85
2022/07/05 08:03:51;;;;;;;1.70;0.98;;;27.20;62.20;;;26.33;47.30;99920.41;10372137;28;96649;-85
2022/07/05 08:08:54;;;;;;;1.88;1.00;;;27.30;61.70;;;26.45;47.68;99926.41;10371603;28;96707;-85
2022/07/05 08:13:57;;;;;;;2.88;0.70;;;27.40;61.80;;;26.59;48.08;99921.16;10373816;28;96898;-85
2022/07/05 08:24:22;;;;;;;2.50;0.95;;;27.80;61.60;;;26.72;47.90;99934.16;10375418;28;96520;-85
2022/07/05 08:29:25;;;;;;;2.55;0.85;;;27.80;61.90;;;26.65;47.77;99931.75;10374709;28;97030;-84
2022/07/05 08:34:28;;;;;;;2.53;0.82;;;27.70;62.20;;;26.54;48.19;99934.81;10369749;28;96899;-87
2022/07/05 08:39:32;;;;;;;2.00;1.00;;;27.60;62.50;;;26.38;48.39;99947.63;10372120;28;97392;-85
2022/07/05 08:44:38;;;;;;;1.00;0.90;;;27.30;62.90;;;26.18;48.50;99943.09;10346541;28;96642;-85
2022/07/05 08:49:47;;;;;;;1.80;0.90;;;27.10;63.10;;;26.15;48.59;99949.09;10354219;28;96801;-85
2022/07/05 08:54:52;;;;;;;3.23;1.03;;;27.00;63.30;;;26.26;48.65;99953.41;10371184;28;96789;-85
2022/07/05 08:59:56;;;;;;;1.73;0.98;;;27.10;63.40;;;26.27;48.39;99940.59;10370756;28;97012;-85
2022/07/05 09:05:00;;;;;;;1.40;1.00;;;27.20;63.00;;;26.24;48.48;99946.59;10327557;28;97002;-85
2022/07/05 09:10:03;;;;;;;1.73;0.80;;;27.10;63.30;;;26.27;49.06;99944.16;10354209;28;96546;-84
2022/07/05 09:15:07;;;;;;;2.35;0.80;;;27.20;63.70;;;26.31;48.64;99952.56;10367987;28;96569;-86
2022/07/05 09:20:19;;;;;;;1.25;0.70;;;27.20;63.30;;;26.34;48.96;99941.94;10370384;28;96849;-85
2022/07/05 09:25:32;;;;;;;1.45;0.80;;;27.30;63.30;;;26.51;49.78;99940.78;10371156;28;96559;-85
2022/07/05 09:30:41;;;;;;;2.30;1.10;;;27.40;64.20;;;26.47;49.93;99947.91;10335820;28;98257;-86
2022/07/05 09:35:59;;;;;;;4.55;1.10;;;27.40;64.50;;;26.36;51.40;99955.28;10345854;28;98395;-85
2022/07/05 09:41:03;;;;;;;1.43;0.97;;;27.30;65.80;;;26.24;51.47;99958.31;10353288;28;97003;-87
2022/07/05 09:46:07;;;;;;;3.20;1.05;;;27.20;66.20;;;26.09;51.74;99955.66;10352435;28;98481;-85
2022/07/05 09:51:12;;;;;;;3.40;1.45;;;27.00;66.40;;;25.77;52.00;99943.16;10362081;28;98703;-86
2022/07/05 09:56:47;;;;;;;1.88;1.40;;;26.70;67.00;;;25.42;53.77;99945.88;10334667;28;97584;-86
2022/07/05 10:01:51;;;;;;;2.55;1.20;;;26.40;68.10;;;25.12;53.98;99944.75;10349153;28;97179;-86
2022/07/05 10:06:54;;;;;;;1.90;1.20;;;26.10;68.50;;;24.88;55.15;99949.03;10351939;28;96805;-78
2022/07/05 10:11:57;;;;;;;1.95;1.10;;;25.90;69.40;;;24.73;55.50;99969.66;10352492;28;96752;-84
2022/07/05 10:17:01;;;;;;;2.15;1.15;;;25.70;69.60;;;24.44;56.26;100007.28;10358293;28;97632;-86
2022/07/05 10:22:06;;;;;;;2.00;1.10;;;25.50;70.30;;;24.15;57.67;100014.16;10362837;28;96722;-84
2022/07/05 10:27:26;;;;;;;;;;;25.20;71.40;;;23.91;58.77;100013.72;10356288;28;96561;-83
2022/07/05 10:32:30;;;;;;;2.25;1.27;;;25.00;72.70;;;23.69;59.16;100033.63;10354775;28;96591;-83
2022/07/05 10:37:34;;;;;;;3.80;1.77;;;24.80;72.80;;;23.33;63.07;100004.50;10377698;28;96567;-84
2022/07/05 10:42:52;;;;;;;4.72;1.92;;;24.50;76.50;;;22.70;67.01;99976.97;10376065;28;96687;-88
2022/07/05 10:48:14;;;;;;;2.55;1.75;;;23.90;81.80;;;21.82;70.90;99998.47;10360028;28;96964;-86
2022/07/05 10:53:21;;;;;;;4.53;2.15;;;23.00;86.10;;;21.11;74.24;99999.91;10376599;28;96617;-87
2022/07/05 10:58:32;;;;;;;4.97;2.30;;;22.40;90.70;;;20.43;78.34;100025.78;10350288;28;96614;-88
2022/07/05 11:03:37;;;;;;;3.80;2.00;;;21.70;94.00;;;19.99;80.94;100014.56;10360064;28;96894;-90
2022/07/05 11:09:04;;;;;;;3.20;2.20;;;21.20;97.40;;;19.70;83.19;100051.31;10359613;28;96526;-90
2022/07/05 11:14:22;;;;;;;3.00;2.00;;;20.90;99.90;;;19.47;84.33;100056.59;10344700;28;96644;-88
2022/07/05 11:19:25;;;;;;;2.33;1.90;;;20.60;99.90;;;19.30;85.48;100056.44;10350782;28;98476;-89
2022/07/05 11:24:36;;;;;;;2.38;1.52;;;20.40;99.90;;;19.21;86.54;100060.50;10363765;28;96945;-88
2022/07/05 11:29:49;;;;;;;2.30;1.40;;;20.30;99.90;;;19.14;87.35;100057.09;10357426;28;96525;-88
2022/07/05 11:34:55;;;;;;;2.80;1.50;;;20.20;99.90;;;19.08;87.61;100074.16;10375394;28;96599;-88
2022/07/05 11:40:14;;;;;;;2.33;1.27;;;20.10;99.90;;;19.06;87.80;100097.78;10334084;28;97352;-85
2022/07/05 11:45:18;;;;;;;3.10;1.65;;;20.10;99.90;;;19.06;88.66;100084.31;10370039;28;96685;-85
2022/07/05 11:50:28;;;;;;;2.58;1.90;;;20.10;99.90;;;19.10;89.01;100072.88;10355736;28;96844;-85
2022/07/05 11:55:31;;;;;;;1.92;1.40;;;20.10;99.90;;;19.14;89.81;100062.47;10320586;28;98356;-85
2022/07/05 12:00:37;;;;;;;2.95;1.60;;;20.20;99.90;;;19.28;90.06;100053.16;10314442;28;96677;-86
2022/07/05 12:05:43;;;;;;;2.53;1.63;;;20.30;99.90;;;19.43;91.04;100050.03;10332844;28;98335;-87
2022/07/05 12:16:17;;;;;;;2.03;1.40;;;20.60;99.90;;;19.66;91.67;100050.13;10363649;28;97905;-86
2022/07/05 12:21:21;;;;;;;2.83;1.73;;;20.80;99.90;;;19.76;92.24;100044.19;10367389;28;97608;-87
2022/07/05 12:26:24;;;;;;;2.20;1.60;;;20.90;99.90;;;19.88;92.32;100038.81;10354246;28;97273;-87
2022/07/05 12:31:27;;;;;;;3.95;1.60;;;21.00;99.90;;;19.93;91.69;100039.75;10338418;28;96676;-89
2022/07/05 12:36:31;;;;;;;2.30;1.40;;;21.10;99.90;;;19.90;90.63;100005.16;10349031;28;96546;-89
2022/07/05 12:41:34;;;;;;;1.92;1.35;;;21.00;99.90;;;19.91;89.77;99996.03;10335362;28;98041;-85
2022/07/05 12:46:42;;;;;;;1.80;1.45;;;21.00;99.90;;;19.95;89.20;100010.66;10332375;28;96548;-84
2022/07/05 12:51:46;;;;;;;2.05;1.50;;;21.00;99.90;;;19.93;89.05;100018.19;10349814;28;96594;-85
2022/07/05 13:02:49;;;;;;;1.70;1.33;;;20.90;99.90;;;19.80;88.29;100018.41;10372830;28;97312;-83
2022/07/05 13:07:54;;;;;;;2.05;1.35;;;20.80;99.90;;;19.77;88.43;100006.19;10372227;28;96564;-84
2022/07/05 13:12:58;;;;;;;1.42;1.30;;;20.70;99.90;;;19.74;88.67;99997.78;10343124;28;96772;-85
2022/07/05 13:18:01;;;;;;;2.20;1.63;;;20.70;99.90;;;19.71;88.88;99990.94;10335582;28;97034;-84
2022/07/05 13:23:04;;;;;;;3.00;1.40;;;20.70;99.90;;;19.72;89.67;99970.19;10338017;28;97502;-84
2022/07/05 13:28:07;;;;;;;2.17;1.17;;;20.70;99.90;;;19.72;90.17;99959.41;10352329;28;97046;-84
2022/07/05 13:33:10;;;;;;;2.47;1.30;;;20.70;99.90;;;19.73;90.60;99953.81;10329694;28;97291;-83
2022/07/05 13:38:13;;;;;;;3.25;1.58;;;20.70;99.90;;;19.73;90.79;99944.88;10329026;28;99027;-84
2022/07/05 13:43:16;;;;;;;1.95;1.40;;;20.70;99.90;;;19.74;90.89;99941.97;10356683;28;98146;-84
2022/07/05 13:48:19;;;;;;;2.22;1.42;;;20.70;99.90;;;19.79;91.03;99952.03;10349550;28;98454;-83
2022/07/05 13:53:22;;;;;;;1.45;1.10;;;20.80;99.90;;;19.86;91.59;99947.38;10323082;28;96933;-83
2022/07/05 13:58:25;;;;;;;1.52;1.30;;;20.90;99.90;;;19.92;91.60;99951.81;10338867;28;97292;-83
2022/07/05 14:03:28;;;;;;;1.45;1.20;;;20.90;99.90;;;20.00;90.97;99937.97;10341917;28;96974;-83
2022/07/05 14:08:31;;;;;;;2.88;1.20;;;21.00;99.90;;;20.13;91.41;99944.19;10339073;28;98457;-83
2022/07/05 14:13:34;;;;;;;2.22;1.38;;;21.20;99.90;;;20.22;91.25;99930.09;10339132;28;96770;-84
2022/07/05 14:18:37;;;;;;;2.72;1.30;;;21.20;99.90;;;20.36;90.29;99930.66;10357555;28;98424;-84
2022/07/05 14:23:42;;;;;;;2.67;1.50;;;21.30;99.90;;;20.54;90.05;99924.28;10342169;28;97400;-83
2022/07/05 14:28:45;;;;;;;1.50;1.20;;;21.50;99.90;;;20.78;89.93;99916.91;10357832;28;96756;-84
2022/07/05 14:33:48;;;;;;;1.27;1.00;;;21.80;99.90;;;21.08;88.51;99903.97;10360045;28;96822;-83
2022/07/05 14:38:52;;;;;;;2.25;1.30;;;22.10;99.90;;;21.28;85.14;99899.97;10377682;28;96558;-84
2022/07/05 14:43:55;;;;;;;2.55;1.20;;;22.30;99.90;;;21.41;84.95;99891.59;10373862;28;97565;-84
2022/07/05 14:48:59;;;;;;;2.42;1.38;;;22.40;99.90;;;21.58;83.49;99895.06;10318571;28;98225;-84
2022/07/05 14:54:02;;;;;;;2.28;1.40;;;22.60;99.90;;;21.70;82.20;99889.56;10333424;28;98041;-84
2022/07/05 14:59:05;;;;;;;2.63;1.45;;;22.70;99.90;;;21.84;82.77;99887.34;10350020;28;96692;-85
2022/07/05 15:04:07;;;;;;;2.13;1.40;;;22.80;99.90;;;22.05;82.63;99894.66;10328175;28;96956;-84
2022/07/05 15:09:10;;;;;;;1.95;1.75;;;23.00;99.90;;;22.46;81.78;99873.53;10326999;28;97147;-86
2022/07/05 15:14:14;;;;;;;3.25;1.50;;;23.40;99.90;;;22.85;79.02;99886.91;10327124;28;98261;-85
2022/07/05 15:19:17;;;;;;;1.63;1.50;;;23.80;99.90;;;22.91;76.65;99880.50;10331762;28;97058;-86
2022/07/05 15:24:21;;;;;;;2.13;1.55;;;23.90;99.90;;;22.93;75.99;99881.09;10350875;28;97022;-86
2022/07/05 15:29:25;;;;;;;1.73;1.60;;;23.90;99.90;;;22.83;74.84;99878.25;10334463;28;96844;-86
2022/07/05 15:34:28;;;;;;;3.38;1.80;;;23.90;99.90;;;22.71;74.72;99871.09;10348523;28;97243;-85
2022/07/05 15:39:32;;;;;;;2.20;1.70;;;23.70;99.90;;;22.67;76.08;99864.56;10328346;28;97475;-85
2022/07/05 15:44:35;;;;;;;2.40;1.80;;;23.70;99.90;;;22.61;75.30;99867.44;10344798;28;97208;-85
2022/07/05 15:49:38;;;;;;;2.47;1.73;;;23.70;99.90;;;22.53;75.40;99859.78;10251460;28;96674;-87
2022/07/05 15:54:41;;;;;;;2.13;1.70;;;23.60;99.90;;;22.46;75.34;99857.28;10269897;28;96618;-85
2022/07/05 15:59:44;;;;;;;1.63;1.50;;;23.60;99.90;;;22.44;75.41;99862.16;10288442;28;96943;-87
2022/07/05 16:04:47;;;;;;;2.25;1.70;;;23.50;99.90;;;22.42;75.22;99848.03;10274333;28;96798;-85
2022/07/05 16:09:52;;;;;;;1.88;1.65;;;23.50;99.90;;;22.47;75.31;99850.78;10290616;28;96562;-86
2022/07/05 16:16:10;;;;;;;2.40;1.90;;;23.50;99.90;;;22.44;74.27;99845.91;10291418;28;96548;-87
2022/07/05 16:20:41;;;;;;;2.60;1.58;;;23.60;99.90;;;22.33;74.33;99847.69;10265855;28;97825;-86
2022/07/05 16:25:46;;;;;;;2.00;1.80;;;23.40;99.90;;;22.24;74.91;99842.94;10270266;28;96709;-85
2022/07/05 16:30:49;;;;;;;1.95;1.75;;;23.30;99.90;;;22.12;75.20;99840.38;10281873;28;98456;-86
2022/07/05 16:35:51;;;;;;;1.95;1.70;;;23.30;99.90;;;22.00;75.47;99832.34;10297057;28;96574;-87
2022/07/05 16:40:54;;;;;;;2.10;1.80;;;23.20;99.90;;;21.97;76.42;99842.88;10292571;28;96470;-85
2022/07/05 16:45:57;;;;;;;2.20;2.00;;;23.00;99.90;;;21.85;76.76;99837.59;10312882;28;97009;-85
2022/07/05 16:51:01;;;;;;;2.10;1.90;;;23.00;99.90;;;21.69;77.25;99830.31;10356187;28;97631;-86
2022/07/05 16:56:10;;;;;;;2.70;1.75;;;22.90;99.90;;;21.56;77.71;99828.81;10373420;28;96905;-85
2022/07/05 17:01:16;;;;;;;2.33;2.13;;;22.70;99.90;;;21.35;78.45;99827.66;10372770;28;97015;-85
2022/07/05 17:06:20;;;;;;;3.75;2.50;;;22.50;99.90;;;21.23;80.05;99833.16;10372757;28;96904;-85
2022/07/05 17:11:23;;;;;;;3.88;2.60;;;22.30;99.90;;;21.11;80.83;99818.91;10373437;28;97010;-85
2022/07/05 17:16:27;;;;;;;2.85;2.53;;;22.20;99.90;;;21.06;81.81;99822.34;10357490;28;97252;-86
2022/07/05 17:21:30;;;;;;;2.97;2.28;;;22.20;99.90;;;21.03;82.81;99832.81;10356024;28;98382;-87
2022/07/05 17:26:33;;;;;;;3.72;2.40;;;22.20;99.90;;;21.00;82.72;99844.94;10375739;28;96401;-86
2022/07/05 17:31:38;;;;;;;3.08;2.55;;;22.10;99.90;;;21.00;83.48;99858.44;10372232;28;96730;-86
2022/07/05 17:36:41;;;;;;;2.88;2.35;;;22.10;99.90;;;21.01;83.90;99867.38;10371890;28;97371;-85
2022/07/05 17:41:44;;;;;;;3.65;2.13;;;22.10;99.90;;;20.98;83.61;99871.38;10355204;28;96614;-87
2022/07/05 17:46:47;;;;;;;5.13;2.90;;;22.10;99.90;;;21.00;83.93;99888.16;10362196;28;97252;-85
2022/07/05 17:51:50;;;;;;;2.58;2.38;;;22.10;99.90;;;20.91;84.07;99884.22;10361243;28;98357;-89
2022/07/05 17:57:13;;;;;;;3.38;2.10;;;22.00;99.90;;;20.80;84.07;99894.00;10354756;28;96659;-87
2022/07/05 18:02:16;;;;;;;4.65;2.70;;;22.00;99.90;;;20.72;84.23;99885.50;10311271;28;97241;-86
2022/07/05 18:07:19;;;;;;;2.50;2.20;;;21.90;99.90;;;20.64;84.66;99889.41;10342990;28;97209;-86
2022/07/05 18:12:22;;;;;;;3.33;2.35;;;21.80;99.90;;;20.56;84.56;99889.78;10378699;28;96511;-86
2022/07/05 18:17:25;;;;;;;3.17;2.38;;;21.70;99.90;;;20.46;84.69;99873.41;10360087;28;98869;-85
2022/07/05 18:22:28;;;;;;;3.83;2.28;;;21.60;99.90;;;20.41;84.84;99884.88;10345072;28;96645;-85
2022/07/05 18:27:31;;;;;;;2.85;2.35;;;21.60;99.90;;;20.35;85.41;99871.53;10340841;28;96932;-85
2022/07/05 18:32:34;;;;;;;2.90;2.60;;;21.50;99.90;;;20.25;85.33;99870.25;10331183;28;96431;-86
2022/07/05 18:37:43;;;;;;;3.10;2.20;;;21.40;99.90;;;20.20;85.77;99861.22;10346317;28;96563;-85
2022/07/05 18:42:46;;;;;;;2.20;1.88;;;21.30;99.90;;;20.15;85.57;99866.50;10344321;28;97335;-87
2022/07/05 18:47:50;;;;;;;3.53;1.88;;;21.20;99.90;;;20.12;85.21;99867.00;10359961;28;97153;-87
2022/07/05 18:52:53;;;;;;;1.90;1.70;;;21.20;99.90;;;20.08;85.11;99876.63;10360788;28;96941;-86
2022/07/05 18:57:56;;;;;;;1.98;1.75;;;21.20;99.90;;;20.02;85.33;99871.13;10363173;27;96606;-85
2022/07/05 19:02:59;;;;;;;2.20;1.60;;;21.20;99.90;;;19.94;85.85;99884.97;10376844;28;96520;-86
2022/07/05 19:13:42;;;;;;;3.58;1.67;;;21.10;99.90;;;19.88;85.95;99877.84;10375907;28;96497;-85
2022/07/05 19:18:45;;;;;;;2.67;2.00;;;21.10;99.90;;;19.87;86.25;99878.91;10361810;28;96622;-85
2022/07/05 19:23:48;;;;;;;2.40;1.70;;;21.10;99.90;;;19.84;86.37;99862.34;10374186;28;96992;-85
2022/07/05 19:28:51;;;;;;;2.40;1.67;;;21.00;99.90;;;19.82;85.98;99870.69;10347374;28;96501;-85
2022/07/05 19:33:54;;;;;;;1.92;1.58;;;21.00;99.90;;;19.78;85.67;99872.22;10343174;28;96378;-85
2022/07/05 19:38:57;;;;;;;2.65;1.67;;;21.00;99.90;;;19.80;85.74;99889.00;10351236;28;96551;-85
2022/07/05 19:44:01;;;;;;;2.08;1.80;;;21.00;99.90;;;19.77;85.38;99884.88;10335286;28;96769;-85
2022/07/05 19:49:04;;;;;;;2.80;1.60;;;21.00;99.90;;;19.81;85.13;99877.16;10357810;28;96608;-85
2022/07/05 19:54:08;;;;;;;2.38;1.50;;;21.00;99.90;;;19.87;84.95;99868.09;10358560;28;96934;-85
2022/07/05 19:59:10;;;;;;;2.70;1.70;;;21.10;99.90;;;19.92;84.60;99875.50;10375361;28;96515;-85
2022/07/05 20:04:16;;;;;;;2.95;1.80;;;21.10;99.90;;;19.98;84.37;99871.84;10358168;28;96454;-85
2022/07/05 20:09:19;;;;;;;2.33;1.77;;;21.20;99.90;;;20.01;84.28;99858.69;10333333;28;96977;-85
2022/07/05 20:14:22;;;;;;;2.42;2.05;;;21.20;99.90;;;20.07;84.29;99853.41;10316518;28;96508;-85
2022/07/05 20:19:25;;;;;;;2.45;2.17;;;21.20;99.90;;;20.10;84.31;99855.66;10321939;28;96629;-85
2022/07/05 20:24:29;;;;;;;3.33;2.03;;;21.30;99.90;;;20.15;83.83;99859.28;10323629;28;98281;-85
2022/07/05 20:29:32;;;;;;;3.20;2.35;;;21.40;99.90;;;20.16;83.34;99852.00;10353213;28;96972;-85
2022/07/05 20:34:35;;;;;;;4.40;2.20;;;21.40;99.90;;;20.18;83.18;99852.56;10369958;28;97090;-85
2022/07/05 20:39:39;;;;;;;3.00;2.42;;;21.30;99.90;;;20.17;83.17;99846.34;10350865;28;96723;-85
2022/07/05 20:44:42;;;;;;;2.85;2.28;;;21.30;99.90;;;20.17;82.73;99848.22;10373052;28;97401;-85
2022/07/05 20:49:44;;;;;;;3.25;2.17;;;21.30;99.90;;;20.13;82.93;99841.66;10351248;28;96819;-87
2022/07/05 20:54:49;;;;;;;2.65;2.17;;;21.30;99.90;;;20.12;82.73;99848.94;10356004;28;97457;-85
2022/07/05 20:59:52;;;;;;;3.40;2.30;;;21.20;99.90;;;20.03;82.88;99845.81;10334107;28;97052;-89
2022/07/05 21:04:55;;;;;;;2.78;2.47;;;21.20;99.90;;;19.95;82.94;99842.66;10348591;28;96737;-85
2022/07/05 21:09:58;;;;;;;2.20;2.00;;;21.10;99.90;;;19.86;83.16;99861.09;10351309;28;96641;-86
2022/07/05 21:15:02;;;;;;;2.95;2.10;;;21.00;99.90;;;19.81;83.42;99852.88;10355668;28;96477;-85
2022/07/05 21:20:08;;;;;;;3.00;2.30;;;21.00;99.90;;;19.76;83.54;99867.06;10328510;28;96616;-86
2022/07/05 21:25:12;;;;;;;3.15;2.05;;;20.90;99.90;;;19.67;83.80;99867.66;10366791;28;96864;-86
2022/07/05 21:30:15;;;;;;;3.20;2.20;;;20.90;99.90;;;19.60;84.08;99873.16;10331832;28;96577;-87
2022/07/05 21:35:18;;;;;;;2.03;1.70;;;20.80;99.90;;;19.49;84.04;99874.78;10370937;28;97056;-85